VLG86SB LEMG-LEBL
Flight info
| Callsign | VLG86SB |
|---|---|
| Flight time | N/A |
| Altitude | 38000 |
| Route | RIXUR M445 PEPAS DCT ARPEX M445 BEGOX N860 VLC L34 CASIM N608 MATEX |
| Aircraft | A320/M-SDE3FGHIRWY/LB1 |
Departure
| Time | 2026-05-04 16:51 |
|---|---|
| Airport | Málaga-Costa del Sol Airport (LEMG) |
Arrival
| Time | N/A |
|---|---|
| Airport | Josep Tarradellas Barcelona-El Prat Airport (LEBL) |
| Time | Latitude | Longitude | Altitude | Speed | Heading |
|---|---|---|---|---|---|
| 2026-05-04 16:28 | 36.67799 | -4.49655 | 50 ft | 0 kts | 131° |
| 2026-05-04 16:40 | 36.67813 | -4.49675 | 51 ft | 2 kts | 131° |
| 2026-05-04 16:40 | 36.67833 | -4.49703 | 51 ft | 2 kts | 131° |
| 2026-05-04 16:41 | 36.67852 | -4.49731 | 51 ft | 2 kts | 131° |
| 2026-05-04 16:41 | 36.67863 | -4.49776 | 50 ft | 2 kts | 67° |
| 2026-05-04 16:42 | 36.67851 | -4.49795 | 50 ft | 0 kts | 40° |
| 2026-05-04 16:44 | 36.67920 | -4.49718 | 53 ft | 13 kts | 41° |
| 2026-05-04 16:45 | 36.68094 | -4.49527 | 43 ft | 13 kts | 42° |
| 2026-05-04 16:46 | 36.68272 | -4.49241 | 39 ft | 15 kts | 118° |
| 2026-05-04 16:46 | 36.68161 | -4.48978 | 35 ft | 18 kts | 119° |
| 2026-05-04 16:47 | 36.68043 | -4.48699 | 35 ft | 16 kts | 117° |
| 2026-05-04 16:47 | 36.67936 | -4.48446 | 37 ft | 18 kts | 119° |
| 2026-05-04 16:48 | 36.67840 | -4.48078 | 30 ft | 4 kts | 28° |
| 2026-05-04 16:48 | 36.67841 | -4.48078 | 30 ft | 0 kts | 28° |
| 2026-05-04 16:49 | 36.67880 | -4.48053 | 31 ft | 10 kts | 26° |
| 2026-05-04 16:50 | 36.67956 | -4.48050 | 33 ft | 2 kts | 301° |
| 2026-05-04 16:50 | 36.68310 | -4.48899 | 35 ft | 116 kts | 298° |
| 2026-05-04 16:51 | 36.69342 | -4.51201 | 651 ft | 160 kts | 307° |
| 2026-05-04 16:51 | 36.70123 | -4.52221 | 1165 ft | 168 kts | 314° |
| 2026-05-04 16:51 | 36.71818 | -4.54276 | 2162 ft | 180 kts | 313° |
| 2026-05-04 16:52 | 36.73611 | -4.56820 | 2680 ft | 217 kts | 309° |
| 2026-05-04 16:52 | 36.74592 | -4.58291 | 3311 ft | 220 kts | 311° |
| 2026-05-04 16:53 | 36.77224 | -4.60081 | 4735 ft | 224 kts | 343° |
| 2026-05-04 16:53 | 36.81858 | -4.60947 | 6706 ft | 240 kts | 19° |
| 2026-05-04 16:54 | 36.83285 | -4.59762 | 7165 ft | 257 kts | 40° |
| 2026-05-04 16:55 | 36.88867 | -4.53455 | 9671 ft | 282 kts | 39° |
| 2026-05-04 16:55 | 36.91846 | -4.50159 | 10888 ft | 290 kts | 39° |
| 2026-05-04 16:56 | 36.94897 | -4.46790 | 12072 ft | 298 kts | 38° |
| 2026-05-04 16:56 | 36.98684 | -4.40544 | 13519 ft | 322 kts | 77° |
| 2026-05-04 16:57 | 36.99146 | -4.37759 | 13803 ft | 336 kts | 80° |
| 2026-05-04 16:57 | 37.00018 | -4.31797 | 14326 ft | 364 kts | 80° |
| 2026-05-04 16:58 | 37.01537 | -4.22144 | 15667 ft | 384 kts | 79° |
| 2026-05-04 16:58 | 37.02067 | -4.18857 | 16190 ft | 387 kts | 79° |
| 2026-05-04 16:59 | 37.03135 | -4.12250 | 17176 ft | 394 kts | 79° |
| 2026-05-04 17:00 | 37.05334 | -3.98605 | 19078 ft | 407 kts | 79° |
| 2026-05-04 17:00 | 37.07014 | -3.88102 | 20557 ft | 413 kts | 79° |
| 2026-05-04 17:01 | 37.08140 | -3.81026 | 21460 ft | 418 kts | 79° |
| 2026-05-04 17:01 | 37.09274 | -3.73863 | 22267 ft | 425 kts | 79° |
| 2026-05-04 17:02 | 37.10458 | -3.66611 | 23095 ft | 430 kts | 74° |
| 2026-05-04 17:02 | 37.13389 | -3.60131 | 23785 ft | 432 kts | 44° |
| 2026-05-04 17:03 | 37.15503 | -3.57426 | 24162 ft | 434 kts | 41° |
| 2026-05-04 17:03 | 37.17674 | -3.54746 | 24477 ft | 438 kts | 41° |
| 2026-05-04 17:03 | 37.21984 | -3.49292 | 25177 ft | 444 kts | 41° |
| 2026-05-04 17:04 | 37.26319 | -3.43711 | 25844 ft | 450 kts | 42° |
| 2026-05-04 17:04 | 37.30676 | -3.38060 | 26496 ft | 455 kts | 41° |
| 2026-05-04 17:05 | 37.35099 | -3.32317 | 27097 ft | 461 kts | 43° |
| 2026-05-04 17:05 | 37.39579 | -3.26483 | 27664 ft | 467 kts | 42° |
| 2026-05-04 17:06 | 37.44099 | -3.20586 | 28239 ft | 471 kts | 42° |
| 2026-05-04 17:06 | 37.46362 | -3.17631 | 28538 ft | 473 kts | 42° |
| 2026-05-04 17:07 | 37.50935 | -3.11646 | 29054 ft | 478 kts | 42° |
| 2026-05-04 17:07 | 37.52486 | -3.09610 | 29250 ft | 479 kts | 42° |
| 2026-05-04 17:07 | 37.55547 | -3.05598 | 29592 ft | 482 kts | 42° |
| 2026-05-04 17:07 | 37.57892 | -3.02524 | 29865 ft | 483 kts | 42° |
| 2026-05-04 17:08 | 37.60208 | -2.99480 | 30122 ft | 485 kts | 42° |
| 2026-05-04 17:08 | 37.64872 | -2.93353 | 30632 ft | 488 kts | 42° |
| 2026-05-04 17:08 | 37.67250 | -2.90223 | 30852 ft | 491 kts | 42° |
| 2026-05-04 17:09 | 37.69604 | -2.87121 | 31075 ft | 492 kts | 42° |
| 2026-05-04 17:09 | 37.71962 | -2.84010 | 31268 ft | 495 kts | 42° |
| 2026-05-04 17:09 | 37.74332 | -2.80877 | 31489 ft | 497 kts | 42° |
| 2026-05-04 17:10 | 37.79120 | -2.74548 | 31923 ft | 500 kts | 42° |
| 2026-05-04 17:10 | 37.86302 | -2.65024 | 32797 ft | 499 kts | 42° |
| 2026-05-04 17:11 | 37.88700 | -2.61833 | 33062 ft | 499 kts | 42° |
| 2026-05-04 17:11 | 37.91076 | -2.58670 | 33317 ft | 499 kts | 42° |
| 2026-05-04 17:11 | 37.95848 | -2.52311 | 33837 ft | 498 kts | 42° |
| 2026-05-04 17:12 | 37.98213 | -2.49158 | 34059 ft | 498 kts | 42° |
| 2026-05-04 17:12 | 38.02993 | -2.42779 | 34464 ft | 499 kts | 42° |
| 2026-05-04 17:13 | 38.10138 | -2.33207 | 35138 ft | 498 kts | 43° |
| 2026-05-04 17:14 | 38.17289 | -2.23595 | 35700 ft | 497 kts | 42° |
| 2026-05-04 17:14 | 38.19633 | -2.20431 | 35882 ft | 497 kts | 43° |
| 2026-05-04 17:14 | 38.24092 | -2.13659 | 36264 ft | 499 kts | 48° |
| 2026-05-04 17:15 | 38.26221 | -2.10202 | 36450 ft | 500 kts | 48° |
| 2026-05-04 17:15 | 38.30490 | -2.03236 | 36769 ft | 501 kts | 48° |
| 2026-05-04 17:16 | 38.34784 | -1.96273 | 37063 ft | 502 kts | 48° |
| 2026-05-04 17:16 | 38.41221 | -1.85829 | 37468 ft | 503 kts | 48° |
| 2026-05-04 17:17 | 38.43372 | -1.82332 | 37571 ft | 503 kts | 48° |
| 2026-05-04 17:17 | 38.49851 | -1.71768 | 37915 ft | 504 kts | 48° |
| 2026-05-04 17:18 | 38.52001 | -1.68254 | 37971 ft | 505 kts | 48° |
| 2026-05-04 17:19 | 38.60607 | -1.54147 | 37986 ft | 506 kts | 49° |